EZY54AW EGGW-EGPF
Flight info
| Callsign | EZY54AW |
|---|---|
| Flight time | 1h 1m |
| Altitude | 32000 |
| Route | OLNEY T420 TNT UN57 POL UN601 RIBEL DCT ASLIB |
| Aircraft | A320/M-SDE3FGHIRWY/LB1 |
Departure
| Time | 2026-04-28 03:55 |
|---|---|
| Airport | London Luton Airport (EGGW) |
Arrival
| Time | 2026-04-28 04:56 |
|---|---|
| Airport | Glasgow Airport (EGPF) |
| Time | Latitude | Longitude | Altitude | Speed | Heading |
|---|---|---|---|---|---|
| 2026-04-28 03:30 | 51.87839 | -0.37844 | 524 ft | 0 kts | 29° |
| 2026-04-28 03:44 | 51.87825 | -0.37856 | 523 ft | 4 kts | 29° |
| 2026-04-28 03:44 | 51.87807 | -0.37872 | 523 ft | 4 kts | 35° |
| 2026-04-28 03:44 | 51.87795 | -0.37896 | 523 ft | 4 kts | 104° |
| 2026-04-28 03:45 | 51.87806 | -0.37929 | 523 ft | 3 kts | 124° |
| 2026-04-28 03:45 | 51.87809 | -0.37935 | 523 ft | 0 kts | 124° |
| 2026-04-28 03:47 | 51.87808 | -0.37934 | 523 ft | 1 kts | 124° |
| 2026-04-28 03:47 | 51.87797 | -0.37903 | 523 ft | 5 kts | 116° |
| 2026-04-28 03:47 | 51.87774 | -0.37830 | 523 ft | 9 kts | 117° |
| 2026-04-28 03:48 | 51.87745 | -0.37725 | 523 ft | 12 kts | 114° |
| 2026-04-28 03:48 | 51.87700 | -0.37574 | 520 ft | 16 kts | 117° |
| 2026-04-28 03:48 | 51.87651 | -0.37474 | 522 ft | 9 kts | 147° |
| 2026-04-28 03:48 | 51.87617 | -0.37444 | 523 ft | 2 kts | 155° |
| 2026-04-28 03:49 | 51.87609 | -0.37440 | 523 ft | 1 kts | 163° |
| 2026-04-28 03:49 | 51.87604 | -0.37440 | 523 ft | 1 kts | 176° |
| 2026-04-28 03:49 | 51.87591 | -0.37445 | 523 ft | 4 kts | 196° |
| 2026-04-28 03:49 | 51.87551 | -0.37466 | 522 ft | 8 kts | 198° |
| 2026-04-28 03:50 | 51.87500 | -0.37543 | 522 ft | 12 kts | 248° |
| 2026-04-28 03:50 | 51.87480 | -0.37677 | 523 ft | 12 kts | 255° |
| 2026-04-28 03:50 | 51.87456 | -0.37817 | 522 ft | 13 kts | 254° |
| 2026-04-28 03:50 | 51.87432 | -0.37950 | 524 ft | 11 kts | 254° |
| 2026-04-28 03:51 | 51.87405 | -0.38029 | 524 ft | 8 kts | 225° |
| 2026-04-28 03:51 | 51.87371 | -0.38064 | 523 ft | 3 kts | 207° |
| 2026-04-28 03:51 | 51.87370 | -0.38065 | 523 ft | 0 kts | 207° |
| 2026-04-28 03:53 | 51.87362 | -0.38071 | 523 ft | 4 kts | 207° |
| 2026-04-28 03:53 | 51.87309 | -0.38110 | 522 ft | 11 kts | 198° |
| 2026-04-28 03:53 | 51.87251 | -0.38137 | 523 ft | 7 kts | 217° |
| 2026-04-28 03:53 | 51.87228 | -0.38218 | 523 ft | 10 kts | 264° |
| 2026-04-28 03:54 | 51.87227 | -0.38338 | 521 ft | 9 kts | 230° |
| 2026-04-28 03:54 | 51.87209 | -0.38302 | 521 ft | 4 kts | 66° |
| 2026-04-28 03:54 | 51.87217 | -0.38260 | 522 ft | 9 kts | 75° |
| 2026-04-28 03:54 | 51.87302 | -0.37773 | 524 ft | 84 kts | 74° |
| 2026-04-28 03:55 | 51.87521 | -0.36524 | 526 ft | 144 kts | 73° |
| 2026-04-28 03:55 | 51.87837 | -0.34837 | 952 ft | 155 kts | 72° |
| 2026-04-28 03:55 | 51.88129 | -0.33164 | 1717 ft | 156 kts | 73° |
| 2026-04-28 03:55 | 51.88427 | -0.31391 | 2195 ft | 170 kts | 72° |
| 2026-04-28 03:56 | 51.88774 | -0.29442 | 2601 ft | 191 kts | 70° |
| 2026-04-28 03:56 | 51.89265 | -0.27315 | 2974 ft | 214 kts | 54° |
| 2026-04-28 03:56 | 51.90519 | -0.25904 | 3477 ft | 236 kts | 15° |
| 2026-04-28 03:56 | 51.92183 | -0.26187 | 4322 ft | 254 kts | 338° |
| 2026-04-28 03:57 | 51.93510 | -0.28156 | 5222 ft | 271 kts | 303° |
| 2026-04-28 03:57 | 51.93972 | -0.31155 | 6116 ft | 284 kts | 271° |
| 2026-04-28 03:57 | 51.93722 | -0.34360 | 7039 ft | 289 kts | 260° |
| 2026-04-28 03:57 | 51.93295 | -0.37564 | 7937 ft | 292 kts | 264° |
| 2026-04-28 03:58 | 51.93475 | -0.40799 | 8752 ft | 290 kts | 296° |
| 2026-04-28 03:58 | 51.94482 | -0.43590 | 9594 ft | 287 kts | 312° |
| 2026-04-28 03:58 | 51.95814 | -0.46002 | 10467 ft | 288 kts | 319° |
| 2026-04-28 03:58 | 51.97325 | -0.48328 | 10815 ft | 310 kts | 321° |
| 2026-04-28 03:59 | 51.98928 | -0.50693 | 11457 ft | 318 kts | 320° |
| 2026-04-28 03:59 | 52.00584 | -0.53188 | 12273 ft | 322 kts | 320° |
| 2026-04-28 03:59 | 52.02200 | -0.55715 | 13102 ft | 324 kts | 319° |
| 2026-04-28 03:59 | 52.03812 | -0.58326 | 13792 ft | 331 kts | 319° |
| 2026-04-28 04:00 | 52.05434 | -0.61017 | 14493 ft | 335 kts | 319° |
| 2026-04-28 04:00 | 52.07062 | -0.63757 | 15221 ft | 339 kts | 318° |
| 2026-04-28 04:00 | 52.08703 | -0.66529 | 15909 ft | 342 kts | 318° |
| 2026-04-28 04:00 | 52.10356 | -0.69322 | 16581 ft | 345 kts | 319° |
| 2026-04-28 04:01 | 52.12037 | -0.72124 | 17234 ft | 346 kts | 321° |
| 2026-04-28 04:01 | 52.13924 | -0.74544 | 17865 ft | 345 kts | 332° |
| 2026-04-28 04:01 | 52.15978 | -0.76577 | 18500 ft | 347 kts | 333° |
| 2026-04-28 04:01 | 52.18052 | -0.78617 | 19120 ft | 350 kts | 333° |
| 2026-04-28 04:02 | 52.20139 | -0.80674 | 19725 ft | 352 kts | 333° |
| 2026-04-28 04:02 | 52.22244 | -0.82753 | 20330 ft | 355 kts | 333° |
| 2026-04-28 04:02 | 52.24366 | -0.84848 | 20917 ft | 358 kts | 333° |
| 2026-04-28 04:02 | 52.26505 | -0.86965 | 21486 ft | 361 kts | 333° |
| 2026-04-28 04:03 | 52.28659 | -0.89106 | 22048 ft | 364 kts | 333° |
| 2026-04-28 04:03 | 52.30826 | -0.91266 | 22615 ft | 367 kts | 333° |
| 2026-04-28 04:03 | 52.32981 | -0.93418 | 23158 ft | 369 kts | 333° |
| 2026-04-28 04:03 | 52.35181 | -0.95617 | 23696 ft | 372 kts | 334° |
| 2026-04-28 04:04 | 52.37398 | -0.97825 | 24208 ft | 374 kts | 334° |
| 2026-04-28 04:04 | 52.39630 | -1.00049 | 24700 ft | 377 kts | 334° |
| 2026-04-28 04:04 | 52.41880 | -1.02295 | 25173 ft | 380 kts | 334° |
| 2026-04-28 04:04 | 52.44140 | -1.04561 | 25640 ft | 383 kts | 334° |
| 2026-04-28 04:05 | 52.46419 | -1.06850 | 26071 ft | 386 kts | 334° |
| 2026-04-28 04:05 | 52.48715 | -1.09158 | 26495 ft | 388 kts | 334° |
| 2026-04-28 04:05 | 52.51025 | -1.11482 | 26913 ft | 391 kts | 334° |
| 2026-04-28 04:05 | 52.53351 | -1.13825 | 27307 ft | 393 kts | 334° |
| 2026-04-28 04:06 | 52.55718 | -1.16212 | 27699 ft | 396 kts | 334° |
| 2026-04-28 04:06 | 52.58072 | -1.18587 | 28078 ft | 398 kts | 334° |
| 2026-04-28 04:06 | 52.60409 | -1.20946 | 28451 ft | 400 kts | 334° |
| 2026-04-28 04:06 | 52.62789 | -1.23352 | 28813 ft | 403 kts | 334° |
| 2026-04-28 04:07 | 52.65184 | -1.25775 | 29160 ft | 405 kts | 334° |
| 2026-04-28 04:07 | 52.67618 | -1.28241 | 29503 ft | 407 kts | 335° |
| 2026-04-28 04:07 | 52.70039 | -1.30689 | 29836 ft | 409 kts | 335° |
| 2026-04-28 04:07 | 52.72472 | -1.33153 | 30164 ft | 411 kts | 335° |
| 2026-04-28 04:08 | 52.74914 | -1.35639 | 30469 ft | 414 kts | 335° |
| 2026-04-28 04:08 | 52.77368 | -1.38146 | 30766 ft | 416 kts | 334° |
| 2026-04-28 04:08 | 52.79833 | -1.40670 | 31057 ft | 418 kts | 334° |
| 2026-04-28 04:08 | 52.82311 | -1.43208 | 31345 ft | 420 kts | 334° |
| 2026-04-28 04:09 | 52.84799 | -1.45759 | 31622 ft | 422 kts | 334° |
| 2026-04-28 04:09 | 52.87301 | -1.48325 | 31880 ft | 424 kts | 334° |
| 2026-04-28 04:09 | 52.89806 | -1.50899 | 32225 ft | 424 kts | 334° |
| 2026-04-28 04:09 | 52.92304 | -1.53474 | 32328 ft | 420 kts | 334° |
| 2026-04-28 04:10 | 52.94702 | -1.55960 | 32346 ft | 403 kts | 334° |
| 2026-04-28 04:10 | 52.97076 | -1.58425 | 32352 ft | 393 kts | 334° |
| 2026-04-28 04:10 | 53.01655 | -1.63156 | 32346 ft | 389 kts | 335° |
| 2026-04-28 04:11 | 53.06320 | -1.67567 | 32337 ft | 380 kts | 345° |
| 2026-04-28 04:11 | 53.11251 | -1.70605 | 32341 ft | 378 kts | 346° |
| 2026-04-28 04:12 | 53.16176 | -1.73657 | 32335 ft | 377 kts | 346° |
| 2026-04-28 04:12 | 53.21090 | -1.76713 | 32337 ft | 377 kts | 346° |
| 2026-04-28 04:13 | 53.26002 | -1.79777 | 32347 ft | 377 kts | 346° |
| 2026-04-28 04:13 | 53.30898 | -1.82847 | 32345 ft | 375 kts | 347° |
| 2026-04-28 04:14 | 53.35787 | -1.85914 | 32349 ft | 375 kts | 347° |
| 2026-04-28 04:14 | 53.40666 | -1.88971 | 32347 ft | 374 kts | 347° |
| 2026-04-28 04:15 | 53.45543 | -1.92036 | 32343 ft | 374 kts | 347° |
| 2026-04-28 04:16 | 53.52827 | -1.96629 | 32350 ft | 372 kts | 348° |
| 2026-04-28 04:16 | 53.57672 | -1.99698 | 32352 ft | 372 kts | 348° |
| 2026-04-28 04:17 | 53.62510 | -2.02765 | 32367 ft | 371 kts | 348° |
| 2026-04-28 04:17 | 53.67340 | -2.05828 | 32366 ft | 371 kts | 348° |
| 2026-04-28 04:18 | 53.72164 | -2.08904 | 32370 ft | 371 kts | 348° |
| 2026-04-28 04:18 | 53.76938 | -2.11989 | 32374 ft | 371 kts | 347° |
| 2026-04-28 04:19 | 53.81739 | -2.15278 | 32373 ft | 372 kts | 346° |
| 2026-04-28 04:19 | 53.86524 | -2.18605 | 32370 ft | 372 kts | 346° |
| 2026-04-28 04:20 | 53.91321 | -2.21894 | 32377 ft | 372 kts | 347° |
| 2026-04-28 04:20 | 53.96109 | -2.25168 | 32386 ft | 371 kts | 347° |
| 2026-04-28 04:21 | 54.00893 | -2.28467 | 32386 ft | 372 kts | 346° |
| 2026-04-28 04:21 | 54.05542 | -2.32606 | 32397 ft | 379 kts | 340° |
| 2026-04-28 04:22 | 54.10158 | -2.36920 | 32413 ft | 378 kts | 340° |
| 2026-04-28 04:22 | 54.14753 | -2.41241 | 32414 ft | 377 kts | 340° |
| 2026-04-28 04:23 | 54.19339 | -2.45561 | 32414 ft | 377 kts | 340° |
| 2026-04-28 04:23 | 54.23927 | -2.49896 | 32415 ft | 377 kts | 340° |
| 2026-04-28 04:24 | 54.28516 | -2.54240 | 32423 ft | 377 kts | 340° |
| 2026-04-28 04:24 | 54.33096 | -2.58583 | 32424 ft | 376 kts | 340° |
| 2026-04-28 04:25 | 54.37664 | -2.62917 | 32421 ft | 375 kts | 340° |
| 2026-04-28 04:25 | 54.42221 | -2.67263 | 32427 ft | 375 kts | 340° |
| 2026-04-28 04:26 | 54.46776 | -2.71617 | 32427 ft | 374 kts | 340° |
| 2026-04-28 04:26 | 54.49038 | -2.73795 | 32185 ft | 370 kts | 340° |
| 2026-04-28 04:26 | 54.51271 | -2.75949 | 31930 ft | 366 kts | 340° |
| 2026-04-28 04:26 | 54.53486 | -2.78078 | 31690 ft | 364 kts | 341° |
| 2026-04-28 04:27 | 54.55656 | -2.80167 | 31451 ft | 359 kts | 341° |
| 2026-04-28 04:27 | 54.57851 | -2.82280 | 31076 ft | 354 kts | 341° |
| 2026-04-28 04:27 | 54.59966 | -2.84316 | 30658 ft | 351 kts | 341° |
| 2026-04-28 04:27 | 54.62090 | -2.86362 | 30252 ft | 348 kts | 342° |
| 2026-04-28 04:28 | 54.64191 | -2.88387 | 29861 ft | 344 kts | 342° |
| 2026-04-28 04:28 | 54.66265 | -2.90389 | 29485 ft | 340 kts | 342° |
| 2026-04-28 04:28 | 54.68322 | -2.92375 | 29099 ft | 337 kts | 342° |
| 2026-04-28 04:28 | 54.70353 | -2.94336 | 28729 ft | 333 kts | 342° |
| 2026-04-28 04:29 | 54.72362 | -2.96278 | 28369 ft | 328 kts | 342° |
| 2026-04-28 04:29 | 54.74337 | -2.98199 | 27991 ft | 324 kts | 341° |
| 2026-04-28 04:29 | 54.76286 | -3.00108 | 27627 ft | 320 kts | 341° |
| 2026-04-28 04:29 | 54.78211 | -3.01994 | 27263 ft | 316 kts | 341° |
| 2026-04-28 04:30 | 54.80117 | -3.03856 | 26885 ft | 313 kts | 341° |
| 2026-04-28 04:30 | 54.82002 | -3.05694 | 26516 ft | 309 kts | 341° |
| 2026-04-28 04:30 | 54.83868 | -3.07514 | 26200 ft | 310 kts | 341° |
| 2026-04-28 04:30 | 54.85811 | -3.09383 | 25891 ft | 324 kts | 341° |
| 2026-04-28 04:31 | 54.87791 | -3.11293 | 25572 ft | 327 kts | 340° |
| 2026-04-28 04:31 | 54.89782 | -3.13240 | 25249 ft | 328 kts | 340° |
| 2026-04-28 04:31 | 54.91764 | -3.15193 | 24928 ft | 327 kts | 340° |
| 2026-04-28 04:31 | 54.93737 | -3.17145 | 24608 ft | 326 kts | 340° |
| 2026-04-28 04:32 | 54.95699 | -3.19091 | 24289 ft | 324 kts | 340° |
| 2026-04-28 04:32 | 54.97654 | -3.21027 | 23975 ft | 323 kts | 339° |
| 2026-04-28 04:32 | 54.99607 | -3.22958 | 23660 ft | 322 kts | 339° |
| 2026-04-28 04:32 | 55.01554 | -3.24876 | 23345 ft | 321 kts | 339° |
| 2026-04-28 04:33 | 55.03496 | -3.26792 | 23031 ft | 320 kts | 339° |
| 2026-04-28 04:33 | 55.05429 | -3.28704 | 22725 ft | 319 kts | 339° |
| 2026-04-28 04:33 | 55.07353 | -3.30609 | 22421 ft | 318 kts | 339° |
| 2026-04-28 04:33 | 55.09248 | -3.32491 | 22108 ft | 317 kts | 339° |
| 2026-04-28 04:34 | 55.11160 | -3.34392 | 21803 ft | 316 kts | 339° |
| 2026-04-28 04:34 | 55.13067 | -3.36285 | 21483 ft | 315 kts | 338° |
| 2026-04-28 04:34 | 55.14969 | -3.38178 | 21186 ft | 314 kts | 338° |
| 2026-04-28 04:34 | 55.16860 | -3.40067 | 20880 ft | 313 kts | 338° |
| 2026-04-28 04:35 | 55.18751 | -3.41953 | 20581 ft | 312 kts | 338° |
| 2026-04-28 04:35 | 55.20633 | -3.43828 | 20178 ft | 312 kts | 338° |
| 2026-04-28 04:35 | 55.22535 | -3.45718 | 19625 ft | 315 kts | 338° |
| 2026-04-28 04:35 | 55.24443 | -3.47613 | 19099 ft | 317 kts | 337° |
| 2026-04-28 04:36 | 55.26365 | -3.49527 | 18573 ft | 319 kts | 337° |
| 2026-04-28 04:36 | 55.28298 | -3.51463 | 18031 ft | 321 kts | 336° |
| 2026-04-28 04:36 | 55.30239 | -3.53416 | 17498 ft | 323 kts | 336° |
| 2026-04-28 04:36 | 55.32189 | -3.55380 | 17076 ft | 321 kts | 336° |
| 2026-04-28 04:37 | 55.34137 | -3.57339 | 16556 ft | 323 kts | 336° |
| 2026-04-28 04:37 | 55.36052 | -3.59272 | 15957 ft | 315 kts | 336° |
| 2026-04-28 04:37 | 55.37932 | -3.61175 | 15333 ft | 308 kts | 335° |
| 2026-04-28 04:37 | 55.39759 | -3.63022 | 14848 ft | 297 kts | 335° |
| 2026-04-28 04:38 | 55.41526 | -3.64812 | 14332 ft | 290 kts | 335° |
| 2026-04-28 04:38 | 55.43274 | -3.66580 | 13804 ft | 290 kts | 335° |
| 2026-04-28 04:38 | 55.45017 | -3.68341 | 13484 ft | 288 kts | 335° |
| 2026-04-28 04:38 | 55.46754 | -3.70095 | 13137 ft | 287 kts | 335° |
| 2026-04-28 04:39 | 55.48468 | -3.71827 | 12553 ft | 283 kts | 334° |
| 2026-04-28 04:39 | 55.50172 | -3.73555 | 11884 ft | 282 kts | 334° |
| 2026-04-28 04:39 | 55.51296 | -3.74698 | 11455 ft | 283 kts | 334° |
| 2026-04-28 04:39 | 55.53000 | -3.76431 | 11076 ft | 282 kts | 333° |
| 2026-04-28 04:40 | 55.54694 | -3.78156 | 10700 ft | 280 kts | 333° |
| 2026-04-28 04:40 | 55.56377 | -3.79874 | 10304 ft | 279 kts | 333° |
| 2026-04-28 04:40 | 55.58056 | -3.81591 | 9906 ft | 279 kts | 333° |
| 2026-04-28 04:40 | 55.59736 | -3.83306 | 9492 ft | 277 kts | 333° |
| 2026-04-28 04:41 | 55.61395 | -3.85000 | 8806 ft | 275 kts | 333° |
| 2026-04-28 04:41 | 55.63044 | -3.86692 | 8107 ft | 274 kts | 333° |
| 2026-04-28 04:41 | 55.64694 | -3.88383 | 7590 ft | 274 kts | 333° |
| 2026-04-28 04:41 | 55.66323 | -3.90053 | 7356 ft | 266 kts | 333° |
| 2026-04-28 04:42 | 55.67892 | -3.91666 | 7226 ft | 255 kts | 333° |
| 2026-04-28 04:42 | 55.69297 | -3.93506 | 6994 ft | 252 kts | 318° |
| 2026-04-28 04:42 | 55.70344 | -3.95983 | 6675 ft | 253 kts | 301° |
| 2026-04-28 04:42 | 55.70977 | -3.98897 | 6310 ft | 254 kts | 290° |
| 2026-04-28 04:43 | 55.71518 | -4.01869 | 5955 ft | 253 kts | 291° |
| 2026-04-28 04:43 | 55.72064 | -4.04821 | 5622 ft | 251 kts | 291° |
| 2026-04-28 04:43 | 55.72610 | -4.07747 | 5273 ft | 249 kts | 291° |
| 2026-04-28 04:43 | 55.73153 | -4.10662 | 5068 ft | 248 kts | 291° |
| 2026-04-28 04:44 | 55.73696 | -4.13572 | 4893 ft | 249 kts | 291° |
| 2026-04-28 04:44 | 55.74231 | -4.16454 | 4714 ft | 241 kts | 291° |
| 2026-04-28 04:44 | 55.74741 | -4.19219 | 4551 ft | 232 kts | 291° |
| 2026-04-28 04:44 | 55.75238 | -4.21925 | 4256 ft | 230 kts | 291° |
| 2026-04-28 04:45 | 55.75732 | -4.24613 | 3965 ft | 228 kts | 291° |
| 2026-04-28 04:45 | 55.76221 | -4.27269 | 3941 ft | 228 kts | 290° |
| 2026-04-28 04:45 | 55.76711 | -4.29949 | 3939 ft | 228 kts | 290° |
| 2026-04-28 04:45 | 55.77205 | -4.32638 | 3929 ft | 228 kts | 290° |
| 2026-04-28 04:46 | 55.77695 | -4.35314 | 3927 ft | 228 kts | 290° |
| 2026-04-28 04:46 | 55.78188 | -4.38002 | 3925 ft | 230 kts | 290° |
| 2026-04-28 04:46 | 55.78677 | -4.40688 | 3926 ft | 228 kts | 290° |
| 2026-04-28 04:46 | 55.79168 | -4.43377 | 3924 ft | 229 kts | 290° |
| 2026-04-28 04:47 | 55.79613 | -4.46085 | 3922 ft | 229 kts | 279° |
| 2026-04-28 04:47 | 55.79424 | -4.48828 | 3914 ft | 227 kts | 246° |
| 2026-04-28 04:47 | 55.78448 | -4.50984 | 3906 ft | 224 kts | 213° |
| 2026-04-28 04:47 | 55.77005 | -4.51899 | 3801 ft | 221 kts | 189° |
| 2026-04-28 04:48 | 55.75526 | -4.52691 | 3671 ft | 224 kts | 201° |
| 2026-04-28 04:48 | 55.74105 | -4.53808 | 3542 ft | 224 kts | 204° |
| 2026-04-28 04:48 | 55.72700 | -4.54989 | 3404 ft | 224 kts | 204° |
| 2026-04-28 04:48 | 55.71288 | -4.56154 | 3285 ft | 224 kts | 203° |
| 2026-04-28 04:49 | 55.69875 | -4.57289 | 3199 ft | 223 kts | 202° |
| 2026-04-28 04:49 | 55.68492 | -4.58491 | 3144 ft | 223 kts | 214° |
| 2026-04-28 04:49 | 55.67409 | -4.60425 | 3109 ft | 222 kts | 237° |
| 2026-04-28 04:49 | 55.66819 | -4.62928 | 3058 ft | 220 kts | 261° |
| 2026-04-28 04:50 | 55.66796 | -4.65534 | 2988 ft | 206 kts | 283° |
| 2026-04-28 04:50 | 55.67281 | -4.67846 | 3000 ft | 198 kts | 304° |
| 2026-04-28 04:50 | 55.68158 | -4.69663 | 2993 ft | 192 kts | 325° |
| 2026-04-28 04:50 | 55.69310 | -4.70811 | 2994 ft | 189 kts | 345° |
| 2026-04-28 04:51 | 55.70567 | -4.71189 | 3000 ft | 185 kts | 3° |
| 2026-04-28 04:51 | 55.71824 | -4.70814 | 3001 ft | 183 kts | 22° |
| 2026-04-28 04:51 | 55.72924 | -4.69733 | 2999 ft | 180 kts | 40° |
| 2026-04-28 04:51 | 55.73817 | -4.68159 | 2999 ft | 182 kts | 47° |
| 2026-04-28 04:52 | 55.74692 | -4.66548 | 2998 ft | 182 kts | 46° |
| 2026-04-28 04:52 | 55.75567 | -4.64933 | 2967 ft | 182 kts | 47° |
| 2026-04-28 04:52 | 55.76442 | -4.63311 | 2786 ft | 181 kts | 47° |
| 2026-04-28 04:52 | 55.77316 | -4.61693 | 2573 ft | 182 kts | 47° |
| 2026-04-28 04:53 | 55.78195 | -4.60065 | 2332 ft | 182 kts | 47° |
| 2026-04-28 04:53 | 55.79069 | -4.58446 | 2091 ft | 181 kts | 47° |
| 2026-04-28 04:53 | 55.79916 | -4.56876 | 1885 ft | 170 kts | 47° |
| 2026-04-28 04:53 | 55.80703 | -4.55411 | 1636 ft | 156 kts | 47° |
| 2026-04-28 04:54 | 55.81422 | -4.54079 | 1438 ft | 144 kts | 47° |
| 2026-04-28 04:54 | 55.82097 | -4.52832 | 1254 ft | 137 kts | 47° |
| 2026-04-28 04:54 | 55.82757 | -4.51604 | 1081 ft | 137 kts | 48° |
| 2026-04-28 04:54 | 55.83410 | -4.50383 | 894 ft | 136 kts | 48° |
| 2026-04-28 04:55 | 55.84060 | -4.49169 | 694 ft | 135 kts | 48° |
| 2026-04-28 04:55 | 55.84709 | -4.47961 | 535 ft | 135 kts | 48° |
| 2026-04-28 04:55 | 55.85359 | -4.46749 | 359 ft | 135 kts | 48° |
| 2026-04-28 04:55 | 55.86008 | -4.45538 | 173 ft | 135 kts | 47° |
| 2026-04-28 04:56 | 55.86655 | -4.44341 | 35 ft | 127 kts | 47° |
| 2026-04-28 04:56 | 55.87162 | -4.43393 | 31 ft | 81 kts | 46° |
| 2026-04-28 04:56 | 55.87446 | -4.42858 | 31 ft | 48 kts | 46° |
| 2026-04-28 04:56 | 55.87663 | -4.42453 | 31 ft | 41 kts | 46° |
| 2026-04-28 04:57 | 55.87753 | -4.42257 | 31 ft | 11 kts | 84° |
| 2026-04-28 04:57 | 55.87706 | -4.42166 | 30 ft | 10 kts | 153° |
| 2026-04-28 04:57 | 55.87643 | -4.42158 | 31 ft | 9 kts | 194° |
| 2026-04-28 04:57 | 55.87586 | -4.42226 | 31 ft | 12 kts | 224° |
| 2026-04-28 04:58 | 55.87522 | -4.42344 | 31 ft | 14 kts | 227° |
| 2026-04-28 04:58 | 55.87449 | -4.42482 | 31 ft | 16 kts | 227° |
| 2026-04-28 04:58 | 55.87365 | -4.42610 | 31 ft | 16 kts | 206° |
| 2026-04-28 04:58 | 55.87255 | -4.42681 | 30 ft | 18 kts | 200° |
| 2026-04-28 04:59 | 55.87133 | -4.42766 | 31 ft | 20 kts | 199° |
| 2026-04-28 04:59 | 55.87008 | -4.42848 | 31 ft | 19 kts | 201° |
| 2026-04-28 04:59 | 55.86894 | -4.42943 | 31 ft | 11 kts | 206° |
| 2026-04-28 04:59 | 55.86845 | -4.43045 | 31 ft | 12 kts | 255° |
| 2026-04-28 05:00 | 55.86820 | -4.43203 | 31 ft | 14 kts | 253° |
| 2026-04-28 05:00 | 55.86791 | -4.43302 | 31 ft | 2 kts | 227° |
| 2026-04-28 05:00 | 55.86782 | -4.43296 | 31 ft | 3 kts | 162° |
| 2026-04-28 05:00 | 55.86746 | -4.43306 | 31 ft | 6 kts | 228° |
| 2026-04-28 05:01 | 55.86729 | -4.43350 | 31 ft | 3 kts | 236° |
| 2026-04-28 05:01 | 55.86725 | -4.43362 | 31 ft | 0 kts | 237° |
| 2026-04-28 05:47 | 55.86727 | -4.43357 | 31 ft | 3 kts | 238° |
| 2026-04-28 05:47 | 55.86737 | -4.43317 | 31 ft | 4 kts | 265° |
| 2026-04-28 05:47 | 55.86733 | -4.43278 | 31 ft | 4 kts | 315° |
| 2026-04-28 05:47 | 55.86724 | -4.43265 | 30 ft | 0 kts | 343° |
| 2026-04-28 05:50 | 55.86730 | -4.43268 | 30 ft | 4 kts | 343° |
| 2026-04-28 05:50 | 55.86780 | -4.43300 | 30 ft | 8 kts | 327° |
| 2026-04-28 05:50 | 55.86790 | -4.43388 | 30 ft | 8 kts | 257° |
| 2026-04-28 05:50 | 55.86768 | -4.43525 | 30 ft | 15 kts | 253° |
| 2026-04-28 05:51 | 55.86739 | -4.43705 | 31 ft | 15 kts | 254° |
| 2026-04-28 05:51 | 55.86686 | -4.43846 | 29 ft | 13 kts | 227° |
| 2026-04-28 05:51 | 55.86625 | -4.43959 | 30 ft | 12 kts | 226° |
| 2026-04-28 05:51 | 55.86570 | -4.44063 | 31 ft | 12 kts | 226° |
| 2026-04-28 05:52 | 55.86495 | -4.44202 | 31 ft | 17 kts | 226° |
| 2026-04-28 05:52 | 55.86413 | -4.44355 | 31 ft | 17 kts | 226° |
| 2026-04-28 05:52 | 55.86329 | -4.44511 | 30 ft | 18 kts | 226° |
| 2026-04-28 05:52 | 55.86259 | -4.44648 | 31 ft | 11 kts | 236° |
| 2026-04-28 05:53 | 55.86268 | -4.44738 | 31 ft | 7 kts | 310° |
| 2026-04-28 05:53 | 55.86307 | -4.44806 | 30 ft | 9 kts | 316° |
| 2026-04-28 05:53 | 55.86354 | -4.44861 | 31 ft | 8 kts | 349° |
| 2026-04-28 05:53 | 55.86419 | -4.44778 | 30 ft | 30 kts | 46° |
| 2026-04-28 05:54 | 55.86758 | -4.44144 | 32 ft | 107 kts | 46° |
| 2026-04-28 05:54 | 55.87408 | -4.42937 | 133 ft | 152 kts | 46° |
| 2026-04-28 05:54 | 55.88122 | -4.41588 | 876 ft | 149 kts | 49° |
| 2026-04-28 05:54 | 55.88848 | -4.40211 | 1485 ft | 161 kts | 48° |
| 2026-04-28 05:55 | 55.89681 | -4.38652 | 1928 ft | 184 kts | 47° |
| 2026-04-28 05:55 | 55.90619 | -4.36921 | 2420 ft | 206 kts | 46° |
| 2026-04-28 05:55 | 55.91672 | -4.34977 | 2939 ft | 229 kts | 46° |
| 2026-04-28 05:55 | 55.92848 | -4.32886 | 3666 ft | 246 kts | 39° |
| 2026-04-28 05:56 | 55.94433 | -4.31715 | 4625 ft | 253 kts | 7° |
| 2026-04-28 05:56 | 55.96185 | -4.32091 | 5652 ft | 260 kts | 341° |
| 2026-04-28 05:56 | 55.97654 | -4.33951 | 6622 ft | 271 kts | 311° |
| 2026-04-28 05:56 | 55.98432 | -4.37088 | 7586 ft | 282 kts | 279° |
| 2026-04-28 05:57 | 55.98164 | -4.40535 | 8457 ft | 292 kts | 249° |
| 2026-04-28 05:57 | 55.97331 | -4.43861 | 9412 ft | 295 kts | 245° |
| 2026-04-28 05:57 | 55.96432 | -4.47185 | 10311 ft | 300 kts | 245° |
| 2026-04-28 05:57 | 55.95417 | -4.50531 | 10886 ft | 319 kts | 233° |
| 2026-04-28 05:58 | 55.93650 | -4.53062 | 11343 ft | 337 kts | 202° |
| 2026-04-28 05:58 | 55.91351 | -4.53791 | 12055 ft | 341 kts | 173° |
| 2026-04-28 05:58 | 55.89060 | -4.52753 | 12832 ft | 342 kts | 158° |
| 2026-04-28 05:58 | 55.86701 | -4.51931 | 13577 ft | 353 kts | 179° |
| 2026-04-28 05:59 | 55.84289 | -4.52923 | 14274 ft | 362 kts | 202° |
| 2026-04-28 05:59 | 55.82052 | -4.55047 | 14999 ft | 367 kts | 212° |
| 2026-04-28 05:59 | 55.79907 | -4.57575 | 15689 ft | 373 kts | 214° |
| 2026-04-28 05:59 | 55.77729 | -4.60157 | 16262 ft | 380 kts | 213° |
| 2026-04-28 06:00 | 55.75466 | -4.62615 | 16435 ft | 382 kts | 210° |
| 2026-04-28 06:00 | 55.73168 | -4.64842 | 16481 ft | 369 kts | 207° |
| 2026-04-28 06:00 | 55.70915 | -4.66823 | 16485 ft | 355 kts | 205° |
| 2026-04-28 06:00 | 55.68697 | -4.68665 | 16485 ft | 351 kts | 204° |
| 2026-04-28 06:01 | 55.66484 | -4.70467 | 16485 ft | 349 kts | 204° |
| 2026-04-28 06:01 | 55.64277 | -4.72269 | 16486 ft | 350 kts | 204° |
| 2026-04-28 06:01 | 55.62072 | -4.74094 | 16485 ft | 350 kts | 205° |
| 2026-04-28 06:01 | 55.59805 | -4.75637 | 16485 ft | 349 kts | 193° |
| 2026-04-28 06:02 | 55.57426 | -4.76366 | 16485 ft | 347 kts | 181° |
| 2026-04-28 06:02 | 55.54984 | -4.76551 | 16487 ft | 355 kts | 179° |
| 2026-04-28 06:02 | 55.52509 | -4.76734 | 16486 ft | 356 kts | 179° |
| 2026-04-28 06:02 | 55.50030 | -4.76925 | 16486 ft | 357 kts | 180° |
| 2026-04-28 06:03 | 55.47546 | -4.77118 | 16486 ft | 357 kts | 179° |
| 2026-04-28 06:03 | 55.45067 | -4.77307 | 16486 ft | 357 kts | 179° |
| 2026-04-28 06:03 | 55.42583 | -4.77499 | 16485 ft | 357 kts | 179° |
| 2026-04-28 06:03 | 55.40097 | -4.77693 | 16485 ft | 357 kts | 179° |
| 2026-04-28 06:04 | 55.37611 | -4.77887 | 16485 ft | 358 kts | 179° |
| 2026-04-28 06:04 | 55.35125 | -4.78080 | 16486 ft | 358 kts | 179° |
| 2026-04-28 06:04 | 55.32677 | -4.78395 | 16481 ft | 359 kts | 186° |
| 2026-04-28 06:04 | 55.30273 | -4.79457 | 16238 ft | 355 kts | 199° |
| 2026-04-28 06:05 | 55.28046 | -4.81278 | 15993 ft | 352 kts | 207° |
| 2026-04-28 06:05 | 55.25871 | -4.83213 | 15742 ft | 350 kts | 206° |
| 2026-04-28 06:05 | 55.23702 | -4.85124 | 15492 ft | 348 kts | 206° |
| 2026-04-28 06:05 | 55.21544 | -4.87012 | 15242 ft | 346 kts | 206° |
| 2026-04-28 06:06 | 55.19403 | -4.88879 | 15009 ft | 341 kts | 206° |
| 2026-04-28 06:06 | 55.17282 | -4.90729 | 14653 ft | 340 kts | 206° |
| 2026-04-28 06:06 | 55.15168 | -4.92571 | 14280 ft | 339 kts | 206° |
| 2026-04-28 06:06 | 55.13058 | -4.94409 | 13900 ft | 338 kts | 206° |
| 2026-04-28 06:07 | 55.10953 | -4.96245 | 13522 ft | 337 kts | 206° |
| 2026-04-28 06:07 | 55.08858 | -4.98074 | 13133 ft | 337 kts | 206° |
| 2026-04-28 06:07 | 55.06763 | -4.99901 | 12735 ft | 336 kts | 206° |
| 2026-04-28 06:07 | 55.04680 | -5.01724 | 12347 ft | 335 kts | 206° |
| 2026-04-28 06:08 | 55.02598 | -5.03543 | 11939 ft | 334 kts | 206° |
| 2026-04-28 06:08 | 55.00526 | -5.05346 | 11532 ft | 332 kts | 206° |
| 2026-04-28 06:08 | 54.98467 | -5.07134 | 11128 ft | 330 kts | 206° |
| 2026-04-28 06:08 | 54.97104 | -5.08315 | 10839 ft | 329 kts | 206° |
| 2026-04-28 06:09 | 54.94383 | -5.10660 | 10367 ft | 324 kts | 206° |
| 2026-04-28 06:09 | 54.93061 | -5.11795 | 10147 ft | 314 kts | 206° |
| 2026-04-28 06:09 | 54.91128 | -5.13462 | 9614 ft | 306 kts | 207° |
| 2026-04-28 06:09 | 54.89408 | -5.15508 | 9188 ft | 299 kts | 223° |
| 2026-04-28 06:10 | 54.88069 | -5.18258 | 8766 ft | 298 kts | 239° |
| 2026-04-28 06:10 | 54.87193 | -5.21484 | 8350 ft | 294 kts | 252° |
| 2026-04-28 06:10 | 54.86520 | -5.24833 | 7910 ft | 294 kts | 252° |
| 2026-04-28 06:10 | 54.85846 | -5.28170 | 7464 ft | 289 kts | 252° |
| 2026-04-28 06:11 | 54.85189 | -5.31399 | 7037 ft | 281 kts | 252° |
| 2026-04-28 06:11 | 54.84538 | -5.34605 | 6496 ft | 282 kts | 252° |
| 2026-04-28 06:11 | 54.83886 | -5.37813 | 5769 ft | 282 kts | 252° |
| 2026-04-28 06:11 | 54.83243 | -5.40958 | 5260 ft | 272 kts | 252° |
| 2026-04-28 06:12 | 54.82615 | -5.44007 | 4815 ft | 267 kts | 252° |
| 2026-04-28 06:12 | 54.81992 | -5.47045 | 4452 ft | 266 kts | 251° |
| 2026-04-28 06:12 | 54.81387 | -5.49996 | 4286 ft | 255 kts | 251° |
| 2026-04-28 06:12 | 54.80803 | -5.52813 | 4159 ft | 242 kts | 251° |
| 2026-04-28 06:13 | 54.80245 | -5.55507 | 4034 ft | 231 kts | 251° |
| 2026-04-28 06:13 | 54.79714 | -5.58076 | 3904 ft | 222 kts | 251° |
| 2026-04-28 06:13 | 54.79198 | -5.60560 | 3785 ft | 215 kts | 252° |
| 2026-04-28 06:13 | 54.78708 | -5.62929 | 3709 ft | 203 kts | 251° |
| 2026-04-28 06:14 | 54.78229 | -5.65200 | 3437 ft | 199 kts | 250° |
| 2026-04-28 06:14 | 54.77694 | -5.67391 | 3170 ft | 195 kts | 238° |
| 2026-04-28 06:14 | 54.76815 | -5.69174 | 3173 ft | 196 kts | 218° |
| 2026-04-28 06:14 | 54.75704 | -5.70548 | 3085 ft | 196 kts | 213° |
| 2026-04-28 06:15 | 54.74595 | -5.71890 | 2871 ft | 192 kts | 213° |
| 2026-04-28 06:15 | 54.73508 | -5.73199 | 2631 ft | 189 kts | 212° |
| 2026-04-28 06:15 | 54.72441 | -5.74486 | 2391 ft | 185 kts | 212° |
| 2026-04-28 06:15 | 54.71393 | -5.75746 | 2144 ft | 182 kts | 212° |
| 2026-04-28 06:16 | 54.70361 | -5.76988 | 1903 ft | 179 kts | 212° |
| 2026-04-28 06:16 | 54.69375 | -5.78176 | 1675 ft | 166 kts | 212° |
| 2026-04-28 06:16 | 54.68469 | -5.79266 | 1473 ft | 151 kts | 212° |
| 2026-04-28 06:16 | 54.67636 | -5.80266 | 1274 ft | 140 kts | 213° |
| 2026-04-28 06:17 | 54.66853 | -5.81205 | 1077 ft | 135 kts | 212° |
| 2026-04-28 06:17 | 54.66087 | -5.82123 | 898 ft | 133 kts | 212° |
| 2026-04-28 06:17 | 54.65328 | -5.83034 | 722 ft | 132 kts | 213° |
| 2026-04-28 06:18 | 54.63820 | -5.84838 | 370 ft | 131 kts | 213° |
| 2026-04-28 06:18 | 54.63071 | -5.85736 | 210 ft | 131 kts | 213° |
| 2026-04-28 06:18 | 54.62323 | -5.86632 | 34 ft | 130 kts | 213° |
| 2026-04-28 06:18 | 54.61674 | -5.87403 | 20 ft | 82 kts | 215° |
| 2026-04-28 06:19 | 54.61402 | -5.87730 | 13 ft | 34 kts | 215° |
| 2026-04-28 06:19 | 54.61313 | -5.87787 | 15 ft | 9 kts | 150° |
| 2026-04-28 06:19 | 54.61279 | -5.87711 | 17 ft | 7 kts | 123° |
| 2026-04-28 06:19 | 54.61259 | -5.87657 | 16 ft | 5 kts | 118° |
| 2026-04-28 06:20 | 54.61275 | -5.87574 | 18 ft | 10 kts | 38° |
| 2026-04-28 06:20 | 54.61342 | -5.87494 | 22 ft | 14 kts | 35° |
| 2026-04-28 06:20 | 54.61415 | -5.87374 | 21 ft | 11 kts | 56° |
| 2026-04-28 06:20 | 54.61450 | -5.87318 | 24 ft | 7 kts | 47° |
| 2026-04-28 06:21 | 54.61445 | -5.87253 | 21 ft | 1 kts | 120° |
| 2026-04-28 06:21 | 54.61446 | -5.87244 | 21 ft | 2 kts | 87° |
| 2026-04-28 06:21 | 54.61463 | -5.87230 | 21 ft | 5 kts | 11° |
| 2026-04-28 06:21 | 54.61505 | -5.87238 | 21 ft | 9 kts | 353° |
| 2026-04-28 06:22 | 54.61536 | -5.87183 | 21 ft | 5 kts | 112° |
| 2026-04-28 06:22 | 54.61509 | -5.87153 | 21 ft | 3 kts | 154° |
| 2026-04-28 06:22 | 54.61499 | -5.87145 | 21 ft | 0 kts | 155° |
| 2026-04-28 06:24 | 54.62072 | -5.86930 | 18 ft | 0 kts | 213° |